createdAt,value
2022-08-03T00:01:29.228Z,25.19
2022-08-03T00:03:55.975Z,25.21
2022-08-03T00:06:22.601Z,25.07
2022-08-03T00:08:49.358Z,25.02
2022-08-03T00:11:16.068Z,24.81
2022-08-03T00:13:42.711Z,24.94
2022-08-03T00:16:10.742Z,24.93
2022-08-03T00:18:37.955Z,25.09
2022-08-03T00:21:05.254Z,24.99
2022-08-03T00:23:33.479Z,24.89
2022-08-03T00:26:18.835Z,24.86
2022-08-03T00:28:45.473Z,24.81
2022-08-03T00:31:13.313Z,24.75
2022-08-03T00:33:58.782Z,24.82
2022-08-03T00:36:27.460Z,24.81
2022-08-03T00:38:54.525Z,24.75
2022-08-03T00:41:21.357Z,24.63
2022-08-03T00:43:48.274Z,24.60
2022-08-03T00:46:20.595Z,24.77
2022-08-03T00:48:49.577Z,24.71
2022-08-03T00:51:16.658Z,24.54
2022-08-03T00:53:43.514Z,24.64
2022-08-03T00:56:14.171Z,24.68
2022-08-03T00:58:41.488Z,24.62
2022-08-03T01:01:08.281Z,24.67
2022-08-03T01:03:35.001Z,24.55
2022-08-03T01:06:18.435Z,24.41
2022-08-03T01:09:09.610Z,24.89
2022-08-03T01:11:59.923Z,24.74
2022-08-03T01:14:33.855Z,24.46
2022-08-03T01:17:24.239Z,24.57
2022-08-03T01:20:02.644Z,24.38
2022-08-03T01:22:38.173Z,24.30
2022-08-03T01:25:11.060Z,24.35
2022-08-03T01:28:03.082Z,24.24
2022-08-03T01:30:36.507Z,24.37
2022-08-03T01:33:15.554Z,24.35
2022-08-03T01:35:47.011Z,23.87
2022-08-03T01:38:24.674Z,24.14
2022-08-03T01:40:54.899Z,24.18
2022-08-03T01:43:55.339Z,24.24
2022-08-03T01:46:17.056Z,24.09
2022-08-03T01:48:46.352Z,24.12
2022-08-03T01:51:15.696Z,24.32
2022-08-03T01:53:45.390Z,24.34
2022-08-03T01:56:13.400Z,24.06
2022-08-03T01:58:42.253Z,24.18
2022-08-03T02:01:10.421Z,24.30
2022-08-03T02:03:53.516Z,24.18
2022-08-03T02:06:59.797Z,23.85
2022-08-03T02:09:17.580Z,24.12
2022-08-03T02:11:46.814Z,23.98
2022-08-03T02:14:14.882Z,23.99
2022-08-03T02:16:44.790Z,23.97
2022-08-03T02:19:11.963Z,24.06
2022-08-03T02:21:56.391Z,23.92
2022-08-03T02:24:25.900Z,23.90
2022-08-03T02:26:55.949Z,23.70
2022-08-03T02:29:39.782Z,23.72
2022-08-03T02:32:12.575Z,23.81
2022-08-03T02:34:42.164Z,23.82
2022-08-03T02:37:11.734Z,23.79
2022-08-03T02:39:41.025Z,23.76
2022-08-03T02:42:12.233Z,23.90
2022-08-03T02:44:41.581Z,23.72
2022-08-03T02:47:11.229Z,23.58
2022-08-03T02:49:50.388Z,23.84
2022-08-03T02:52:19.903Z,23.87
2022-08-03T02:54:49.264Z,23.83
2022-08-03T02:57:17.293Z,23.89
2022-08-03T02:59:45.971Z,24.09
2022-08-03T03:02:15.379Z,24.00
2022-08-03T03:05:50.702Z,23.87
2022-08-03T03:07:31.305Z,24.03
2022-08-03T03:10:05.920Z,23.74
2022-08-03T03:12:35.899Z,23.64
2022-08-03T03:15:03.330Z,23.79
2022-08-03T03:17:31.777Z,23.67
2022-08-03T03:19:59.541Z,23.76
2022-08-03T03:22:27.573Z,23.75
2022-08-03T03:24:54.913Z,23.90
2022-08-03T03:27:21.994Z,23.85
2022-08-03T03:29:50.220Z,24.33
2022-08-03T03:32:17.479Z,24.38
2022-08-03T03:34:45.317Z,24.49
2022-08-03T03:37:12.551Z,24.44
2022-08-03T03:39:41.152Z,24.64
2022-08-03T03:42:08.041Z,24.46
2022-08-03T03:44:34.705Z,24.81
2022-08-03T03:47:01.412Z,24.53
2022-08-03T03:49:28.187Z,24.13
2022-08-03T03:51:55.662Z,24.22
2022-08-03T03:54:22.477Z,24.24
2022-08-03T03:56:52.455Z,24.18
2022-08-03T03:59:19.219Z,24.18
2022-08-03T04:01:45.908Z,24.34
2022-08-03T04:04:31.282Z,24.36
2022-08-03T04:07:16.713Z,24.22
2022-08-03T04:10:14.152Z,24.38
2022-08-03T04:12:50.583Z,24.34
2022-08-03T04:15:21.003Z,24.46
2022-08-03T04:17:50.287Z,24.68
2022-08-03T04:20:20.150Z,24.62
2022-08-03T04:22:49.795Z,24.77
2022-08-03T04:25:19.497Z,24.88
2022-08-03T04:28:20.942Z,24.97
2022-08-03T04:30:39.146Z,24.78
2022-08-03T04:33:09.292Z,24.53
2022-08-03T04:36:00.892Z,24.63
2022-08-03T04:38:25.824Z,24.75
2022-08-03T04:40:53.003Z,24.68
2022-08-03T04:43:22.264Z,24.56
2022-08-03T04:45:50.273Z,25.30
2022-08-03T04:48:17.465Z,25.73
2022-08-03T04:50:44.747Z,25.95
2022-08-03T04:53:11.546Z,25.75
2022-08-03T04:55:38.540Z,25.59
2022-08-03T04:58:06.354Z,25.75
2022-08-03T05:00:33.203Z,25.56
2022-08-03T05:02:59.884Z,25.23
2022-08-03T05:05:26.861Z,25.40
2022-08-03T05:08:13.574Z,26.09
2022-08-03T05:13:16.908Z,26.61
2022-08-03T05:15:43.602Z,26.98
2022-08-03T05:18:13.950Z,27.42
2022-08-03T05:20:41.492Z,27.54
2022-08-03T05:23:08.294Z,27.70
2022-08-03T05:25:35.016Z,27.84
2022-08-03T05:28:01.646Z,28.06
2022-08-03T05:30:33.552Z,28.18
2022-08-03T05:33:02.633Z,28.36
2022-08-03T05:36:01.063Z,28.35
2022-08-03T05:38:23.950Z,28.75
2022-08-03T05:41:21.855Z,28.72
2022-08-03T05:43:44.945Z,29.13
2022-08-03T05:46:13.142Z,29.17
2022-08-03T05:48:41.165Z,29.49
2022-08-03T05:51:11.752Z,29.40
2022-08-03T05:53:42.343Z,29.43
2022-08-03T05:56:14.133Z,29.73
2022-08-03T05:58:48.374Z,29.89
2022-08-03T06:01:16.305Z,30.14
2022-08-03T06:03:43.586Z,30.11
2022-08-03T06:06:11.614Z,30.47
2022-08-03T06:08:39.375Z,30.26
2022-08-03T06:11:06.139Z,30.71
2022-08-03T06:13:33.050Z,30.69
2022-08-03T06:15:59.795Z,30.85
2022-08-03T06:18:26.516Z,31.11
2022-08-03T06:20:54.069Z,31.06
2022-08-03T06:23:23.333Z,30.95
2022-08-03T06:26:09.281Z,30.88
2022-08-03T06:28:52.831Z,31.43
2022-08-03T06:31:32.342Z,31.30
2022-08-03T06:34:34.182Z,31.43
2022-08-03T06:36:50.970Z,31.46
2022-08-03T06:39:19.746Z,31.71
2022-08-03T06:41:46.467Z,31.92
2022-08-03T06:44:13.721Z,31.90
2022-08-03T06:46:40.667Z,31.86
2022-08-03T06:49:08.150Z,32.10
2022-08-03T06:52:06.128Z,32.23
2022-08-03T06:54:24.561Z,32.09
2022-08-03T06:56:51.312Z,32.13
2022-08-03T07:00:08.446Z,32.39
2022-08-03T07:02:05.471Z,32.49
2022-08-03T07:04:32.181Z,32.41
2022-08-03T07:06:58.904Z,32.36
2022-08-03T07:09:27.051Z,32.26
2022-08-03T07:11:54.350Z,32.88
2022-08-03T07:14:21.861Z,32.94
2022-08-03T07:16:49.528Z,32.93
2022-08-03T07:19:16.319Z,32.97
2022-08-03T07:21:43.071Z,33.34
2022-08-03T07:24:09.814Z,32.75
2022-08-03T07:26:36.486Z,33.41
2022-08-03T07:29:03.819Z,33.41
2022-08-03T07:31:42.122Z,33.16
2022-08-03T07:34:08.892Z,33.35
2022-08-03T07:36:35.542Z,33.08
2022-08-03T07:39:15.813Z,33.45
2022-08-03T07:41:44.729Z,33.93
2022-08-03T07:44:11.511Z,33.64
2022-08-03T07:46:38.206Z,33.87
2022-08-03T07:49:05.459Z,33.13
2022-08-03T07:51:32.122Z,33.51
2022-08-03T07:54:00.802Z,33.85
2022-08-03T07:56:28.293Z,33.79
2022-08-03T07:58:55.730Z,34.29
2022-08-03T08:01:23.527Z,33.29
2022-08-03T08:03:53.198Z,33.81
2022-08-03T08:06:21.753Z,33.13
2022-08-03T08:08:48.628Z,34.11
2022-08-03T08:11:15.495Z,34.49
2022-08-03T08:13:42.319Z,34.19
2022-08-03T08:16:09.041Z,34.71
2022-08-03T08:18:35.775Z,34.94
2022-08-03T08:21:03.484Z,34.42
2022-08-03T08:23:42.854Z,34.43
2022-08-03T08:26:11.081Z,34.78
2022-08-03T08:28:38.000Z,35.37
2022-08-03T08:31:04.634Z,34.47
2022-08-03T08:36:18.093Z,34.32
2022-08-03T08:38:45.247Z,34.76
2022-08-03T08:41:14.169Z,35.06
2022-08-03T08:43:41.665Z,34.99
2022-08-03T08:46:12.366Z,35.68
2022-08-03T08:48:42.453Z,36.18
2022-08-03T08:51:11.567Z,35.56
2022-08-03T08:53:41.700Z,35.87
2022-08-03T08:56:15.347Z,35.96
2022-08-03T08:58:47.191Z,35.10
2022-08-03T09:01:13.985Z,35.96
2022-08-03T09:03:41.319Z,36.25
2022-08-03T09:06:07.994Z,36.24
2022-08-03T09:08:34.786Z,35.82
2022-08-03T09:11:01.708Z,35.63
2022-08-03T09:13:29.402Z,35.71
2022-08-03T09:16:14.691Z,35.98
2022-08-03T09:18:47.253Z,35.95
2022-08-03T09:21:34.852Z,35.39
2022-08-03T09:24:05.733Z,35.76
2022-08-03T09:26:38.260Z,36.34
2022-08-03T09:29:14.734Z,35.93
2022-08-03T09:31:45.209Z,36.16
2022-08-03T09:34:17.001Z,36.11
2022-08-03T09:36:49.263Z,35.99
2022-08-03T09:39:41.678Z,36.48
2022-08-03T09:42:10.791Z,36.05
2022-08-03T09:44:42.218Z,36.34
2022-08-03T09:47:13.895Z,35.83
2022-08-03T09:49:42.202Z,35.45
2022-08-03T09:52:32.367Z,35.55
2022-08-03T09:56:30.506Z,35.45
2022-08-03T09:58:10.003Z,35.67
2022-08-03T10:00:55.756Z,35.79
2022-08-03T10:03:23.380Z,36.08
2022-08-03T10:05:50.158Z,36.17
2022-08-03T10:08:18.692Z,35.84
2022-08-03T10:10:47.916Z,36.35
2022-08-03T10:13:16.794Z,36.29
2022-08-03T10:16:22.593Z,36.28
2022-08-03T10:18:31.186Z,36.24
2022-08-03T10:21:07.852Z,35.64
2022-08-03T10:23:35.550Z,35.71
2022-08-03T10:26:04.011Z,36.55
2022-08-03T10:28:45.238Z,36.69
2022-08-03T10:31:14.009Z,36.11
2022-08-03T10:33:51.568Z,36.31
2022-08-03T10:36:23.688Z,36.33
2022-08-03T10:38:56.563Z,36.56
2022-08-03T10:41:33.314Z,35.91
2022-08-03T10:44:10.358Z,36.48
2022-08-03T10:46:44.815Z,35.98
2022-08-03T10:49:19.072Z,35.56
2022-08-03T10:52:07.565Z,35.88
2022-08-03T10:55:03.083Z,35.71
2022-08-03T10:57:43.897Z,35.70
2022-08-03T11:00:26.442Z,35.23
2022-08-03T11:03:10.467Z,35.27
2022-08-03T11:05:38.617Z,35.76
2022-08-03T11:08:28.632Z,36.27
2022-08-03T11:11:23.601Z,36.51
2022-08-03T11:14:20.469Z,36.18
2022-08-03T11:17:05.961Z,36.02
2022-08-03T11:19:57.253Z,35.90
2022-08-03T11:22:25.183Z,36.18
2022-08-03T11:24:54.177Z,36.09
2022-08-03T11:27:29.871Z,35.62
2022-08-03T11:30:11.284Z,35.88
2022-08-03T11:32:38.353Z,35.83
2022-08-03T11:35:28.974Z,35.50
2022-08-03T11:38:03.123Z,35.62
2022-08-03T11:40:48.326Z,35.47
2022-08-03T11:43:31.325Z,35.84
2022-08-03T11:46:29.437Z,35.65
2022-08-03T11:49:09.774Z,35.96
2022-08-03T11:51:38.776Z,35.82
2022-08-03T11:54:06.552Z,35.89
2022-08-03T11:56:53.483Z,35.83
2022-08-03T11:59:32.677Z,36.29
2022-08-03T12:02:14.763Z,36.08
2022-08-03T12:05:02.957Z,36.08
2022-08-03T12:08:04.284Z,36.22
2022-08-03T12:10:17.441Z,36.36
2022-08-03T12:12:46.662Z,36.14
2022-08-03T12:15:14.024Z,36.49
2022-08-03T12:17:41.700Z,36.55
2022-08-03T12:20:10.505Z,36.08
2022-08-03T12:22:39.502Z,36.42
2022-08-03T12:25:07.950Z,36.38
2022-08-03T12:27:35.437Z,36.12
2022-08-03T12:30:03.049Z,36.43
2022-08-03T12:32:30.516Z,35.90
2022-08-03T12:35:01.006Z,36.70
2022-08-03T12:37:28.987Z,36.47
2022-08-03T12:40:02.528Z,36.16
2022-08-03T12:42:34.856Z,36.42
2022-08-03T12:45:22.861Z,36.43
2022-08-03T12:48:01.152Z,36.48
2022-08-03T12:50:35.987Z,36.57
2022-08-03T12:53:09.275Z,36.64
2022-08-03T12:56:04.272Z,36.91
2022-08-03T12:58:33.989Z,36.22
2022-08-03T13:01:05.061Z,36.55
2022-08-03T13:03:49.865Z,37.06
2022-08-03T13:06:26.531Z,37.03
2022-08-03T13:09:07.042Z,37.36
2022-08-03T13:12:01.852Z,37.04
2022-08-03T13:14:21.058Z,36.21
2022-08-03T13:16:49.587Z,36.64
2022-08-03T13:19:16.519Z,36.07
2022-08-03T13:22:03.250Z,36.57
2022-08-03T13:24:31.831Z,36.76
2022-08-03T13:26:59.616Z,36.97
2022-08-03T13:29:26.276Z,36.49
2022-08-03T13:31:53.100Z,36.84
2022-08-03T13:34:23.546Z,36.72
2022-08-03T13:37:10.300Z,36.81
2022-08-03T13:39:58.150Z,36.74
2022-08-03T13:42:25.533Z,36.92
2022-08-03T13:44:52.196Z,36.90
2022-08-03T13:47:19.674Z,36.77
2022-08-03T13:50:00.403Z,36.62
2022-08-03T13:52:33.734Z,36.43
2022-08-03T13:55:01.323Z,36.45
2022-08-03T13:58:02.351Z,36.59
2022-08-03T14:00:28.168Z,36.81
2022-08-03T14:03:03.780Z,36.90
2022-08-03T14:05:32.196Z,36.42
2022-08-03T14:08:04.557Z,36.80
2022-08-03T14:10:35.971Z,36.83
2022-08-03T14:13:03.689Z,36.50
2022-08-03T14:15:30.626Z,36.81
2022-08-03T14:17:58.395Z,36.86
2022-08-03T14:20:36.517Z,36.69
2022-08-03T14:23:06.958Z,36.94
2022-08-03T14:25:43.259Z,36.69
2022-08-03T14:28:23.123Z,36.77
2022-08-03T14:30:55.812Z,36.84
2022-08-03T14:33:22.827Z,36.53
2022-08-03T14:35:49.958Z,36.44
2022-08-03T14:38:17.429Z,36.58
2022-08-03T14:40:44.445Z,36.75
2022-08-03T14:43:11.383Z,36.53
2022-08-03T14:45:39.360Z,36.36
2022-08-03T14:50:10.338Z,36.22
2022-08-03T14:50:55.229Z,36.31
2022-08-03T14:53:22.139Z,36.56
2022-08-03T14:55:51.327Z,36.07
2022-08-03T14:58:23.612Z,36.48
2022-08-03T15:00:52.008Z,36.52
2022-08-03T15:03:24.801Z,36.60
2022-08-03T15:05:57.538Z,36.37
2022-08-03T15:08:25.767Z,36.47
2022-08-03T15:10:53.530Z,36.60
2022-08-03T15:13:21.078Z,36.10
2022-08-03T15:15:48.517Z,36.06
2022-08-03T15:18:15.447Z,36.33
2022-08-03T15:20:45.328Z,36.23
2022-08-03T15:23:14.154Z,36.26
2022-08-03T15:26:32.314Z,36.05
2022-08-03T15:28:27.799Z,35.90
2022-08-03T15:30:54.810Z,36.17
2022-08-03T15:33:21.751Z,36.04
2022-08-03T15:35:48.425Z,35.82
2022-08-03T15:38:15.698Z,35.84
2022-08-03T15:40:42.579Z,35.92
2022-08-03T15:43:09.365Z,36.09
2022-08-03T15:45:37.047Z,35.98
2022-08-03T15:48:07.098Z,35.99
2022-08-03T15:50:34.031Z,35.82
2022-08-03T15:53:00.702Z,35.50
2022-08-03T15:55:27.801Z,35.72
2022-08-03T15:59:04.906Z,35.70
2022-08-03T16:00:42.439Z,35.66
2022-08-03T16:03:10.264Z,35.56
2022-08-03T16:05:37.027Z,35.04
2022-08-03T16:08:06.228Z,35.49
2022-08-03T16:10:33.700Z,35.57
2022-08-03T16:13:00.744Z,35.42
2022-08-03T16:15:27.806Z,34.96
2022-08-03T16:17:54.974Z,35.47
2022-08-03T16:20:30.896Z,35.48
2022-08-03T16:23:10.333Z,35.39
2022-08-03T16:25:39.523Z,35.47
2022-08-03T16:28:13.193Z,35.22
2022-08-03T16:30:42.361Z,35.36
2022-08-03T16:33:10.063Z,35.24
2022-08-03T16:35:37.019Z,34.89
2022-08-03T16:38:09.985Z,34.98
2022-08-03T16:40:37.872Z,35.09
2022-08-03T16:43:18.260Z,34.78
2022-08-03T16:45:49.099Z,34.61
2022-08-03T16:48:16.548Z,35.34
2022-08-03T16:50:44.441Z,35.43
2022-08-03T16:53:16.634Z,35.24
2022-08-03T16:55:53.946Z,34.77
2022-08-03T16:58:34.380Z,35.25
2022-08-03T17:01:21.719Z,34.89
2022-08-03T17:04:03.258Z,34.56
2022-08-03T17:06:36.147Z,34.56
2022-08-03T17:09:11.830Z,34.65
2022-08-03T17:15:10.635Z,35.24
2022-08-03T17:21:42.534Z,34.68
2022-08-03T17:33:20.231Z,34.73
2022-08-03T17:37:05.711Z,34.33
2022-08-03T17:53:07.061Z,33.92
2022-08-03T17:57:22.662Z,33.66
2022-08-03T18:00:10.560Z,33.73
2022-08-03T18:15:08.397Z,33.33
2022-08-03T18:26:52.870Z,33.08
2022-08-03T18:30:02.733Z,32.87
2022-08-03T18:39:32.609Z,32.05
2022-08-03T18:58:21.083Z,31.44
2022-08-03T19:05:56.296Z,31.29
2022-08-03T19:32:26.317Z,31.04
2022-08-03T19:54:00.472Z,30.45
2022-08-03T19:58:07.790Z,30.31
2022-08-03T20:02:17.411Z,30.12
2022-08-03T20:21:01.829Z,29.87
2022-08-03T20:48:30.600Z,29.49
2022-08-03T20:50:57.748Z,29.71
2022-08-03T20:54:00.231Z,29.79
2022-08-03T20:56:14.523Z,29.58
2022-08-03T20:58:42.471Z,29.62
2022-08-03T21:01:17.382Z,29.57
2022-08-03T21:03:55.771Z,29.66
2022-08-03T21:06:27.699Z,29.61
2022-08-03T21:09:05.404Z,30.02
2022-08-03T21:11:46.494Z,29.48
2022-08-03T21:13:06.785Z,29.78
2022-08-03T21:14:18.939Z,29.34
2022-08-03T21:16:46.449Z,29.34
2022-08-03T21:19:16.438Z,29.32
2022-08-03T21:21:46.756Z,29.56
2022-08-03T21:24:14.183Z,29.30
2022-08-03T21:26:42.964Z,29.41
2022-08-03T21:29:14.173Z,29.38
2022-08-03T21:31:41.143Z,29.51
2022-08-03T21:34:07.862Z,29.22
2022-08-03T21:36:37.257Z,29.32
2022-08-03T21:39:08.176Z,29.28
2022-08-03T21:41:35.856Z,29.13
2022-08-03T21:44:04.546Z,29.38
2022-08-03T21:46:37.133Z,29.29
2022-08-03T21:50:07.691Z,29.20
2022-08-03T21:51:59.472Z,29.44
2022-08-03T21:54:33.375Z,29.16
2022-08-03T21:57:04.676Z,29.03
2022-08-03T21:59:37.053Z,28.88
2022-08-03T22:02:04.395Z,29.16
2022-08-03T22:04:55.738Z,29.12
2022-08-03T22:07:20.577Z,28.96
2022-08-03T22:09:51.065Z,28.93
2022-08-03T22:12:30.526Z,28.62
2022-08-03T22:15:00.573Z,28.54
2022-08-03T22:17:55.417Z,28.43
2022-08-03T22:20:17.919Z,28.58
2022-08-03T22:22:55.048Z,28.50
2022-08-03T22:25:27.359Z,28.44
2022-08-03T22:27:54.832Z,28.42
2022-08-03T22:30:23.130Z,28.28
2022-08-03T22:32:52.236Z,28.09
2022-08-03T22:35:21.371Z,28.27
2022-08-03T23:37:18.493Z,27.43
2022-08-03T23:39:47.182Z,27.05
2022-08-03T23:42:21.686Z,27.13
2022-08-03T23:44:53.229Z,27.33
2022-08-03T23:47:20.093Z,27.56
2022-08-03T23:49:47.008Z,27.39
2022-08-03T23:52:30.126Z,27.47
2022-08-03T23:55:21.635Z,27.35
2022-08-03T23:58:00.092Z,27.31
